F/V Eema 2 — FL9603 — position and weather

sailwx.info

Track history (hours):
 
Tides and Currents Weather Stations Pressure Air Temp Water Temp Dewpoint Dewpoint Depression Visibility Wind Speed Wind Dir Waves Ship Positions

F/V Eema 2

Last reported at 2017-Oct-23 02:19 UTC. Time now 2017-Oct-23 02:49 UTC.
Position N 43°26' W 001°40'.

Length 10 m.

Type: Fishing. MMSI: 22700000.

Date/timePositionNaut miles runAvg speedWind from/ knotsBaromVisibWave heightAir tempDewpointWater temp
2017-Oct-23 02:19N 43°26' W 001°40'  
2017-Oct-20 21:06N 43°53' W 001°34'1 8.1
2017-Oct-20 20:57N 43°54' W 001°33'4 8.0
2017-Oct-20 20:27N 43°58' W 001°33'4 8.1
2017-Oct-20 20:00N 44°02' W 001°32'5 8.0
2017-Oct-20 19:24N 44°07' W 001°31'3 8.0
2017-Oct-20 18:59N 44°10' W 001°30'4 7.9
2017-Oct-20 18:28N 44°14' W 001°28'7 8.0
2017-Oct-20 17:34N 44°21' W 001°27'1 8.3
2017-Oct-20 17:29N 44°22' W 001°27'4 8.3
2017-Oct-20 16:59N 44°26' W 001°26'4 8.2
2017-Oct-20 16:29N 44°30' W 001°25'5 8.2
2017-Oct-20 15:52N 44°35' W 001°24'3 8.2
2017-Oct-20 15:27N 44°38' W 001°23'4 8.2
2017-Oct-20 15:00N 44°42' W 001°22'5 0.1
2017-Oct-18 15:01N 44°47' W 001°21'0 1.4
2017-Oct-18 14:55N 44°47' W 001°21'1 1.1
2017-Oct-18 14:00N 44°46' W 001°21'1 1.2
2017-Oct-18 13:30N 44°45' W 001°22'1 1.0
2017-Oct-18 12:54N 44°45' W 001°23'1 1.0
2017-Oct-18 12:22N 44°46' W 001°23'0 0.0
2017-Oct-17 14:42N 44°46' W 001°23'7 1.5
2017-Oct-17 10:19N 44°40' W 001°27'1 1.5
2017-Oct-17 09:56N 44°41' W 001°27'1 1.6
2017-Oct-17 09:28N 44°42' W 001°27'0 1.0
2017-Oct-17 08:57N 44°42' W 001°27'1 1.3
2017-Oct-17 08:30N 44°43' W 001°27'1 0.8
2017-Oct-17 07:36N 44°43' W 001°27'0 1.2
2017-Oct-17 07:20N 44°43' W 001°27'0 1.4
2017-Oct-17 06:59N 44°42' W 001°27'1 1.6
2017-Oct-17 06:30N 44°42' W 001°27'1 1.5
2017-Oct-17 05:56N 44°41' W 001°27'1 1.4
2017-Oct-17 05:28N 44°40' W 001°27'2 0.2
2017-Oct-16 19:16N 44°42' W 001°27'2 7.1
2017-Oct-16 18:56N 44°40' W 001°27'4 7.1
2017-Oct-16 18:26N 44°36' W 001°26'7 7.7
2017-Oct-16 17:31N 44°29' W 001°25'0 7.6
2017-Oct-16 17:30N 44°29' W 001°25'4 7.6
2017-Oct-16 17:00N 44°25' W 001°25'4 7.6
2017-Oct-16 16:30N 44°21' W 001°25'4 7.6
2017-Oct-16 16:00N 44°18' W 001°26'5 7.6
2017-Oct-16 15:24N 44°13' W 001°27'3 8.0
2017-Oct-16 15:00N 44°10' W 001°28'8 8.0
2017-Oct-16 14:00N 44°02' W 001°30'4 8.0
2017-Oct-16 13:30N 43°58' W 001°32'4 8.1
2017-Oct-16 13:00N 43°54' W 001°33'4 8.2
2017-Oct-16 12:30N 43°50' W 001°34'4 8.0
2017-Oct-16 12:00N 43°46' W 001°35'21 8.1
2017-Oct-16 09:24N 43°26' W 001°40'6 0.3
2017-Oct-15 14:50N 43°31' W 001°38'25 8.3
2017-Oct-15 11:50N 43°55' W 001°29'3 8.0
2017-Oct-15 11:30N 43°58' W 001°27'4 8.1
2017-Oct-15 10:58N 44°02' W 001°25'4 8.3
2017-Oct-15 10:30N 44°05' W 001°23'4 8.2
2017-Oct-15 10:00N 44°09' W 001°22'4 8.1
2017-Oct-15 09:30N 44°13' W 001°21'4 8.1
2017-Oct-15 08:59N 44°17' W 001°19'2 3.3
2017-Oct-15 08:28N 44°19' W 001°19'1 1.6
2017-Oct-15 07:59N 44°18' W 001°19'1 1.5
2017-Oct-15 07:30N 44°17' W 001°19'1 1.4
2017-Oct-15 07:01N 44°17' W 001°19'0 0.9
2017-Oct-15 06:29N 44°16' W 001°20'0 1.0
2017-Oct-15 06:00N 44°16' W 001°20'0 0.5
2017-Oct-15 05:30N 44°16' W 001°20'1 1.2
2017-Oct-15 05:00N 44°16' W 001°20'1 1.4
2017-Oct-15 04:30N 44°17' W 001°20'1 1.4
2017-Oct-15 04:00N 44°18' W 001°20'1 1.4
2017-Oct-15 03:30N 44°18' W 001°20'1 1.3
2017-Oct-15 03:00N 44°19' W 001°20'4 8.6
2017-Oct-15 02:30N 44°23' W 001°18'2 3.5
2017-Oct-15 02:00N 44°25' W 001°17'2 4.6
2017-Oct-15 01:30N 44°23' W 001°18'1 1.6
2017-Oct-15 01:00N 44°23' W 001°17'1 1.9
2017-Oct-15 00:30N 44°24' W 001°17'0 0.8
2017-Oct-15 00:00N 44°24' W 001°17'1 1.7
2017-Oct-14 23:30N 44°23' W 001°17'1 1.8
2017-Oct-14 23:00N 44°22' W 001°18'0 0.6
2017-Oct-14 22:29N 44°22' W 001°18'0 0.0
2017-Oct-14 22:00N 44°22' W 001°18'0 0.0
2017-Oct-14 21:30N 44°22' W 001°18'0 0.1
2017-Oct-14 20:59N 44°22' W 001°18'0 0.1
2017-Oct-14 20:29N 44°22' W 001°18'0 0.0
2017-Oct-14 19:56N 44°22' W 001°18'0 0.0
2017-Oct-14 19:29N 44°22' W 001°18'0 0.0
2017-Oct-14 18:59N 44°22' W 001°18'0 0.0
2017-Oct-14 18:30N 44°22' W 001°18'0 0.3
2017-Oct-14 18:00N 44°22' W 001°18'1 1.4
2017-Oct-14 17:30N 44°22' W 001°18'1 1.7
2017-Oct-14 17:00N 44°23' W 001°17'1 2.8
2017-Oct-14 16:29N 44°25' W 001°17'1 1.8
2017-Oct-14 15:57N 44°24' W 001°17'1 2.6
2017-Oct-14 15:28N 44°22' W 001°17'1 1.1
2017-Oct-14 14:59N 44°23' W 001°17'1 1.8
2017-Oct-14 14:30N 44°24' W 001°17'1 1.3
2017-Oct-14 14:00N 44°24' W 001°17'1 1.5
2017-Oct-14 13:29N 44°24' W 001°17'1 1.7
2017-Oct-14 12:59N 44°25' W 001°17'2 3.8
2017-Oct-14 12:30N 44°23' W 001°18'3 5.9
2017-Oct-14 12:00N 44°20' W 001°19'3 6.9
2017-Oct-14 11:30N 44°16' W 001°20'1 1.2
2017-Oct-14 11:00N 44°17' W 001°20'1 1.7
2017-Oct-14 10:28N 44°18' W 001°19'1 1.9
2017-Oct-14 10:00N 44°19' W 001°19'3 5.9
2017-Oct-14 09:31N 44°21' W 001°17'1 1.5
2017-Oct-14 09:01N 44°22' W 001°17'1 0.2
2017-Oct-14 04:33N 44°23' W 001°17'0 1.1
2017-Oct-14 04:24N 44°23' W 001°17'0 0.1
2017-Oct-14 01:43N 44°22' W 001°18'0 0.0
2017-Oct-14 01:28N 44°22' W 001°18'0 0.1
2017-Oct-14 00:52N 44°22' W 001°18'0 0.1
2017-Oct-13 23:40N 44°22' W 001°18'0 0.0
2017-Oct-13 23:28N 44°22' W 001°18'0 0.0
2017-Oct-13 22:58N 44°22' W 001°18'0 0.1
2017-Oct-13 22:28N 44°22' W 001°18'0 0.0
2017-Oct-13 21:58N 44°22' W 001°18'0 0.0
2017-Oct-13 21:22N 44°22' W 001°18'0 0.1
2017-Oct-13 20:58N 44°22' W 001°18'0 0.1
2017-Oct-13 20:28N 44°22' W 001°18'0 0.0
2017-Oct-13 19:58N 44°22' W 001°18'0 0.0
2017-Oct-13 19:28N 44°22' W 001°18'0 0.3
2017-Oct-13 19:00N 44°22' W 001°18'4 7.8
2017-Oct-13 18:29N 44°18' W 001°19'3 5.4
2017-Oct-13 17:59N 44°16' W 001°20'3 6.9
2017-Oct-13 17:30N 44°19' W 001°20'3 6.1
2017-Oct-13 17:01N 44°22' W 001°18'2 4.6
2017-Oct-13 16:31N 44°24' W 001°17'4 6.4
2017-Oct-13 15:56N 44°21' W 001°20'2 3.9
2017-Oct-13 15:30N 44°20' W 001°22'1 1.6
2017-Oct-13 14:49N 44°21' W 001°22'1 1.7
2017-Oct-13 14:23N 44°21' W 001°22'0 1.2
2017-Oct-13 13:59N 44°20' W 001°22'1 2.1
2017-Oct-13 13:30N 44°21' W 001°22'1 1.8
2017-Oct-13 13:00N 44°22' W 001°22'1 1.6
2017-Oct-13 12:30N 44°23' W 001°22'1 1.8
2017-Oct-13 11:59N 44°24' W 001°22'3 5.7
2017-Oct-13 11:28N 44°22' W 001°18'1 2.6
2017-Oct-13 11:00N 44°22' W 001°17'2 3.6
2017-Oct-13 10:30N 44°24' W 001°17'2 3.3
2017-Oct-13 10:00N 44°22' W 001°18'3 5.2
2017-Oct-13 09:30N 44°22' W 001°22'1 1.4
2017-Oct-13 09:00N 44°22' W 001°22'1 1.7
2017-Oct-13 08:30N 44°23' W 001°22'1 1.4
2017-Oct-13 08:00N 44°24' W 001°21'1 1.0
2017-Oct-13 07:30N 44°23' W 001°21'1 1.4
2017-Oct-13 07:00N 44°23' W 001°21'1 1.5
2017-Oct-13 06:29N 44°22' W 001°22'1 1.8
2017-Oct-13 05:59N 44°21' W 001°22'0 0.2
2017-Oct-13 05:28N 44°21' W 001°22'0 0.0
2017-Oct-13 04:55N 44°21' W 001°22'0 0.0
2017-Oct-13 04:28N 44°21' W 001°22'0 0.0
2017-Oct-13 03:58N 44°21' W 001°22'0 0.0
2017-Oct-13 03:25N 44°21' W 001°22'0 0.0
2017-Oct-13 02:52N 44°21' W 001°22'0 0.0
2017-Oct-13 02:28N 44°21' W 001°22'  
Track history (hours):
 
Tides and Currents Weather Stations Pressure Air Temp Water Temp Dewpoint Dewpoint Depression Visibility Wind Speed Wind Dir Waves Ship Positions

F/V Eema 2

Last reported at 2017-Oct-23 02:19 UTC. Time now 2017-Oct-23 02:49 UTC.
Position N 43°26' W 001°40'.

Length 10 m.

Type: Fishing. MMSI: 22700000.

Date/timePositionNaut miles runAvg speedWind from/ knotsBaromVisibWave heightAir tempDewpointWater temp
2017-Oct-23 02:19N 43°26' W 001°40'  
2017-Oct-20 21:06N 43°53' W 001°34'1 8.1
2017-Oct-20 20:57N 43°54' W 001°33'4 8.0
2017-Oct-20 20:27N 43°58' W 001°33'4 8.1
2017-Oct-20 20:00N 44°02' W 001°32'5 8.0
2017-Oct-20 19:24N 44°07' W 001°31'3 8.0
2017-Oct-20 18:59N 44°10' W 001°30'4 7.9
2017-Oct-20 18:28N 44°14' W 001°28'7 8.0
2017-Oct-20 17:34N 44°21' W 001°27'1 8.3
2017-Oct-20 17:29N 44°22' W 001°27'4 8.3
2017-Oct-20 16:59N 44°26' W 001°26'4 8.2
2017-Oct-20 16:29N 44°30' W 001°25'5 8.2
2017-Oct-20 15:52N 44°35' W 001°24'3 8.2
2017-Oct-20 15:27N 44°38' W 001°23'4 8.2
2017-Oct-20 15:00N 44°42' W 001°22'5 0.1
2017-Oct-18 15:01N 44°47' W 001°21'0 1.4
2017-Oct-18 14:55N 44°47' W 001°21'1 1.1
2017-Oct-18 14:00N 44°46' W 001°21'1 1.2
2017-Oct-18 13:30N 44°45' W 001°22'1 1.0
2017-Oct-18 12:54N 44°45' W 001°23'1 1.0
2017-Oct-18 12:22N 44°46' W 001°23'0 0.0
2017-Oct-17 14:42N 44°46' W 001°23'7 1.5
2017-Oct-17 10:19N 44°40' W 001°27'1 1.5
2017-Oct-17 09:56N 44°41' W 001°27'1 1.6
2017-Oct-17 09:28N 44°42' W 001°27'0 1.0
2017-Oct-17 08:57N 44°42' W 001°27'1 1.3
2017-Oct-17 08:30N 44°43' W 001°27'1 0.8
2017-Oct-17 07:36N 44°43' W 001°27'0 1.2
2017-Oct-17 07:20N 44°43' W 001°27'0 1.4
2017-Oct-17 06:59N 44°42' W 001°27'1 1.6
2017-Oct-17 06:30N 44°42' W 001°27'1 1.5
2017-Oct-17 05:56N 44°41' W 001°27'1 1.4
2017-Oct-17 05:28N 44°40' W 001°27'2 0.2
2017-Oct-16 19:16N 44°42' W 001°27'2 7.1
2017-Oct-16 18:56N 44°40' W 001°27'4 7.1
2017-Oct-16 18:26N 44°36' W 001°26'7 7.7
2017-Oct-16 17:31N 44°29' W 001°25'0 7.6
2017-Oct-16 17:30N 44°29' W 001°25'4 7.6
2017-Oct-16 17:00N 44°25' W 001°25'4 7.6
2017-Oct-16 16:30N 44°21' W 001°25'4 7.6
2017-Oct-16 16:00N 44°18' W 001°26'5 7.6
2017-Oct-16 15:24N 44°13' W 001°27'3 8.0
2017-Oct-16 15:00N 44°10' W 001°28'8 8.0
2017-Oct-16 14:00N 44°02' W 001°30'4 8.0
2017-Oct-16 13:30N 43°58' W 001°32'4 8.1
2017-Oct-16 13:00N 43°54' W 001°33'4 8.2
2017-Oct-16 12:30N 43°50' W 001°34'4 8.0
2017-Oct-16 12:00N 43°46' W 001°35'21 8.1
2017-Oct-16 09:24N 43°26' W 001°40'6 0.3
2017-Oct-15 14:50N 43°31' W 001°38'25 8.3
2017-Oct-15 11:50N 43°55' W 001°29'3 8.0
2017-Oct-15 11:30N 43°58' W 001°27'4 8.1
2017-Oct-15 10:58N 44°02' W 001°25'4 8.3
2017-Oct-15 10:30N 44°05' W 001°23'4 8.2
2017-Oct-15 10:00N 44°09' W 001°22'4 8.1
2017-Oct-15 09:30N 44°13' W 001°21'4 8.1
2017-Oct-15 08:59N 44°17' W 001°19'2 3.3
2017-Oct-15 08:28N 44°19' W 001°19'1 1.6
2017-Oct-15 07:59N 44°18' W 001°19'1 1.5
2017-Oct-15 07:30N 44°17' W 001°19'1 1.4
2017-Oct-15 07:01N 44°17' W 001°19'0 0.9
2017-Oct-15 06:29N 44°16' W 001°20'0 1.0
2017-Oct-15 06:00N 44°16' W 001°20'0 0.5
2017-Oct-15 05:30N 44°16' W 001°20'1 1.2
2017-Oct-15 05:00N 44°16' W 001°20'1 1.4
2017-Oct-15 04:30N 44°17' W 001°20'1 1.4
2017-Oct-15 04:00N 44°18' W 001°20'1 1.4
2017-Oct-15 03:30N 44°18' W 001°20'1 1.3
2017-Oct-15 03:00N 44°19' W 001°20'4 8.6
2017-Oct-15 02:30N 44°23' W 001°18'2 3.5
2017-Oct-15 02:00N 44°25' W 001°17'2 4.6
2017-Oct-15 01:30N 44°23' W 001°18'1 1.6
2017-Oct-15 01:00N 44°23' W 001°17'1 1.9
2017-Oct-15 00:30N 44°24' W 001°17'0 0.8
2017-Oct-15 00:00N 44°24' W 001°17'1 1.7
2017-Oct-14 23:30N 44°23' W 001°17'1 1.8
2017-Oct-14 23:00N 44°22' W 001°18'0 0.6
2017-Oct-14 22:29N 44°22' W 001°18'0 0.0
2017-Oct-14 22:00N 44°22' W 001°18'0 0.0
2017-Oct-14 21:30N 44°22' W 001°18'0 0.1
2017-Oct-14 20:59N 44°22' W 001°18'0 0.1
2017-Oct-14 20:29N 44°22' W 001°18'0 0.0
2017-Oct-14 19:56N 44°22' W 001°18'0 0.0
2017-Oct-14 19:29N 44°22' W 001°18'0 0.0
2017-Oct-14 18:59N 44°22' W 001°18'0 0.0
2017-Oct-14 18:30N 44°22' W 001°18'0 0.3
2017-Oct-14 18:00N 44°22' W 001°18'1 1.4
2017-Oct-14 17:30N 44°22' W 001°18'1 1.7
2017-Oct-14 17:00N 44°23' W 001°17'1 2.8
2017-Oct-14 16:29N 44°25' W 001°17'1 1.8
2017-Oct-14 15:57N 44°24' W 001°17'1 2.6
2017-Oct-14 15:28N 44°22' W 001°17'1 1.1
2017-Oct-14 14:59N 44°23' W 001°17'1 1.8
2017-Oct-14 14:30N 44°24' W 001°17'1 1.3
2017-Oct-14 14:00N 44°24' W 001°17'1 1.5
2017-Oct-14 13:29N 44°24' W 001°17'1 1.7
2017-Oct-14 12:59N 44°25' W 001°17'2 3.8
2017-Oct-14 12:30N 44°23' W 001°18'3 5.9
2017-Oct-14 12:00N 44°20' W 001°19'3 6.9
2017-Oct-14 11:30N 44°16' W 001°20'1 1.2
2017-Oct-14 11:00N 44°17' W 001°20'1 1.7
2017-Oct-14 10:28N 44°18' W 001°19'1 1.9
2017-Oct-14 10:00N 44°19' W 001°19'3 5.9
2017-Oct-14 09:31N 44°21' W 001°17'1 1.5
2017-Oct-14 09:01N 44°22' W 001°17'1 0.2
2017-Oct-14 04:33N 44°23' W 001°17'0 1.1
2017-Oct-14 04:24N 44°23' W 001°17'0 0.1
2017-Oct-14 01:43N 44°22' W 001°18'0 0.0
2017-Oct-14 01:28N 44°22' W 001°18'0 0.1
2017-Oct-14 00:52N 44°22' W 001°18'0 0.1
2017-Oct-13 23:40N 44°22' W 001°18'0 0.0
2017-Oct-13 23:28N 44°22' W 001°18'0 0.0
2017-Oct-13 22:58N 44°22' W 001°18'0 0.1
2017-Oct-13 22:28N 44°22' W 001°18'0 0.0
2017-Oct-13 21:58N 44°22' W 001°18'0 0.0
2017-Oct-13 21:22N 44°22' W 001°18'0 0.1
2017-Oct-13 20:58N 44°22' W 001°18'0 0.1
2017-Oct-13 20:28N 44°22' W 001°18'0 0.0
2017-Oct-13 19:58N 44°22' W 001°18'0 0.0
2017-Oct-13 19:28N 44°22' W 001°18'0 0.3
2017-Oct-13 19:00N 44°22' W 001°18'4 7.8
2017-Oct-13 18:29N 44°18' W 001°19'3 5.4
2017-Oct-13 17:59N 44°16' W 001°20'3 6.9
2017-Oct-13 17:30N 44°19' W 001°20'3 6.1
2017-Oct-13 17:01N 44°22' W 001°18'2 4.6
2017-Oct-13 16:31N 44°24' W 001°17'4 6.4
2017-Oct-13 15:56N 44°21' W 001°20'2 3.9
2017-Oct-13 15:30N 44°20' W 001°22'1 1.6
2017-Oct-13 14:49N 44°21' W 001°22'1 1.7
2017-Oct-13 14:23N 44°21' W 001°22'0 1.2
2017-Oct-13 13:59N 44°20' W 001°22'1 2.1
2017-Oct-13 13:30N 44°21' W 001°22'1 1.8
2017-Oct-13 13:00N 44°22' W 001°22'1 1.6
2017-Oct-13 12:30N 44°23' W 001°22'1 1.8
2017-Oct-13 11:59N 44°24' W 001°22'3 5.7
2017-Oct-13 11:28N 44°22' W 001°18'1 2.6
2017-Oct-13 11:00N 44°22' W 001°17'2 3.6
2017-Oct-13 10:30N 44°24' W 001°17'2 3.3
2017-Oct-13 10:00N 44°22' W 001°18'3 5.2
2017-Oct-13 09:30N 44°22' W 001°22'1 1.4
2017-Oct-13 09:00N 44°22' W 001°22'1 1.7
2017-Oct-13 08:30N 44°23' W 001°22'1 1.4
2017-Oct-13 08:00N 44°24' W 001°21'1 1.0
2017-Oct-13 07:30N 44°23' W 001°21'1 1.4
2017-Oct-13 07:00N 44°23' W 001°21'1 1.5
2017-Oct-13 06:29N 44°22' W 001°22'1 1.8
2017-Oct-13 05:59N 44°21' W 001°22'0 0.2
2017-Oct-13 05:28N 44°21' W 001°22'0 0.0
2017-Oct-13 04:55N 44°21' W 001°22'0 0.0
2017-Oct-13 04:28N 44°21' W 001°22'0 0.0
2017-Oct-13 03:58N 44°21' W 001°22'0 0.0
2017-Oct-13 03:25N 44°21' W 001°22'0 0.0
2017-Oct-13 02:52N 44°21' W 001°22'0 0.0
2017-Oct-13 02:28N 44°21' W 001°22'  

Dump ship's entire track history